createdAt,value
2018-06-25T00:00:37.682Z,6.10
2018-06-25T00:03:05.768Z,5.87
2018-06-25T00:05:33.561Z,5.20
2018-06-25T00:08:01.268Z,6.33
2018-06-25T00:10:29.043Z,6.10
2018-06-25T00:12:56.762Z,6.43
2018-06-25T00:15:24.535Z,6.17
2018-06-25T00:17:52.256Z,6.50
2018-06-25T00:20:20.025Z,5.93
2018-06-25T00:22:47.779Z,6.93
2018-06-25T00:25:15.624Z,7.40
2018-06-25T00:27:43.332Z,6.43
2018-06-25T00:30:11.099Z,6.87
2018-06-25T00:32:38.859Z,6.27
2018-06-25T00:35:06.719Z,6.23
2018-06-25T00:37:34.454Z,6.43
2018-06-25T00:40:02.063Z,6.43
2018-06-25T00:42:29.810Z,6.33
2018-06-25T00:44:57.544Z,6.97
2018-06-25T00:47:25.310Z,6.30
2018-06-25T00:49:53.018Z,6.40
2018-06-25T00:52:20.788Z,6.30
2018-06-25T00:54:48.507Z,6.90
2018-06-25T00:57:16.297Z,7.07
2018-06-25T00:59:51.068Z,6.07
2018-06-25T01:02:19.096Z,6.27
2018-06-25T01:04:47.031Z,5.67
2018-06-25T01:07:14.800Z,7.10
2018-06-25T01:09:42.659Z,6.07
2018-06-25T01:12:10.448Z,5.50
2018-06-25T01:14:38.211Z,6.80
2018-06-25T01:17:06.491Z,5.77
2018-06-25T01:19:34.211Z,5.10
2018-06-25T01:22:01.972Z,5.30
2018-06-25T01:24:29.745Z,5.70
2018-06-25T01:26:57.567Z,4.87
2018-06-25T01:29:26.188Z,5.37
2018-06-25T01:31:54.024Z,5.40
2018-06-25T01:34:21.763Z,5.73
2018-06-25T01:36:49.653Z,5.60
2018-06-25T01:39:17.372Z,5.10
2018-06-25T01:41:45.148Z,5.07
2018-06-25T01:44:12.925Z,4.57
2018-06-25T01:46:40.690Z,5.10
2018-06-25T01:49:08.453Z,5.13
2018-06-25T01:51:36.632Z,5.30
2018-06-25T01:54:04.385Z,6.17
2018-06-25T01:56:32.163Z,5.10
2018-06-25T01:58:59.928Z,5.13
2018-06-25T02:01:27.700Z,5.53
2018-06-25T02:03:55.508Z,5.10
2018-06-25T02:06:23.153Z,4.90
2018-06-25T02:08:50.940Z,4.37
2018-06-25T02:11:18.782Z,5.63
2018-06-25T02:13:46.516Z,5.03
2018-06-25T02:16:14.272Z,5.97
2018-06-25T02:18:41.977Z,5.10
2018-06-25T02:21:09.726Z,5.10
2018-06-25T02:23:37.487Z,6.47
2018-06-25T02:26:05.286Z,6.47
2018-06-25T02:28:32.992Z,6.50
2018-06-25T02:31:00.769Z,7.40
2018-06-25T02:33:28.499Z,6.93
2018-06-25T02:35:56.263Z,7.03
2018-06-25T02:38:24.099Z,6.77
2018-06-25T02:40:51.880Z,5.90
2018-06-25T02:43:19.659Z,7.33
2018-06-25T02:45:47.425Z,6.40
2018-06-25T02:48:15.140Z,5.57
2018-06-25T02:50:42.911Z,6.30
2018-06-25T02:53:10.707Z,6.93
2018-06-25T02:55:38.453Z,6.77
2018-06-25T02:58:06.205Z,7.00
2018-06-25T03:00:33.965Z,6.63
2018-06-25T03:03:01.703Z,7.60
2018-06-25T03:05:29.427Z,7.20
2018-06-25T03:07:57.022Z,6.20
2018-06-25T03:10:24.821Z,6.43
2018-06-25T03:12:52.615Z,6.97
2018-06-25T03:15:20.354Z,6.47
2018-06-25T03:17:48.110Z,6.27
2018-06-25T03:20:15.919Z,7.43
2018-06-25T03:22:43.715Z,6.90
2018-06-25T03:25:11.449Z,6.63
2018-06-25T03:27:39.200Z,6.40
2018-06-25T03:30:06.976Z,7.30
2018-06-25T03:32:34.596Z,6.60
2018-06-25T03:35:02.340Z,7.90
2018-06-25T03:37:30.076Z,7.37
2018-06-25T03:39:57.790Z,6.20
2018-06-25T03:42:25.511Z,7.80
2018-06-25T03:44:53.256Z,8.87
2018-06-25T03:47:21.015Z,6.40
2018-06-25T03:49:48.732Z,6.93
2018-06-25T03:52:16.473Z,7.70
2018-06-25T03:54:44.258Z,7.13
2018-06-25T03:57:11.995Z,6.57
2018-06-25T03:59:39.753Z,6.00
2018-06-25T04:02:07.494Z,7.40
2018-06-25T04:04:35.239Z,7.33
2018-06-25T04:07:03.048Z,7.20
2018-06-25T04:09:30.795Z,6.70
2018-06-25T04:11:58.463Z,6.47
2018-06-25T04:14:26.184Z,7.07
2018-06-25T04:16:53.920Z,6.83
2018-06-25T04:19:21.638Z,7.40
2018-06-25T04:21:49.407Z,8.10
2018-06-25T04:24:17.131Z,8.43
2018-06-25T04:26:44.914Z,8.87
2018-06-25T04:29:12.665Z,8.07
2018-06-25T04:31:40.435Z,9.30
2018-06-25T04:34:08.199Z,9.13
2018-06-25T04:36:35.924Z,9.17
2018-06-25T04:39:05.657Z,11.17
2018-06-25T04:41:33.432Z,10.07
2018-06-25T04:44:01.204Z,11.10
2018-06-25T04:46:28.928Z,10.27
2018-06-25T04:48:56.696Z,11.70
2018-06-25T04:51:24.440Z,10.87
2018-06-25T04:53:52.179Z,10.73
2018-06-25T04:56:19.906Z,11.40
2018-06-25T04:58:48.052Z,10.70
2018-06-25T05:01:16.527Z,11.13
2018-06-25T05:03:44.124Z,10.10
2018-06-25T05:06:11.887Z,10.30
2018-06-25T05:08:39.611Z,10.87
2018-06-25T05:11:07.388Z,10.10
2018-06-25T05:13:35.180Z,8.63
2018-06-25T05:16:02.941Z,10.70
2018-06-25T05:18:30.695Z,8.13
2018-06-25T05:20:58.436Z,9.40
2018-06-25T05:23:26.152Z,9.40
2018-06-25T05:25:53.991Z,9.50
2018-06-25T05:28:21.739Z,9.50
2018-06-25T05:30:49.359Z,7.83
2018-06-25T05:33:17.072Z,9.07
2018-06-25T05:35:44.845Z,10.07
2018-06-25T05:38:12.625Z,9.57
2018-06-25T05:40:40.385Z,10.30
2018-06-25T05:43:08.172Z,9.90
2018-06-25T05:45:35.840Z,12.87
2018-06-25T05:48:03.625Z,11.00
2018-06-25T05:50:31.390Z,12.50
2018-06-25T05:52:59.137Z,10.20
2018-06-25T05:55:27.278Z,11.47
2018-06-25T05:57:55.019Z,10.00
2018-06-25T06:00:22.828Z,11.17
2018-06-25T06:02:50.682Z,11.77
2018-06-25T06:05:18.440Z,10.20
2018-06-25T06:07:46.215Z,10.73
2018-06-25T06:10:13.979Z,11.67
2018-06-25T06:12:42.253Z,10.60
2018-06-25T06:15:10.020Z,9.03
2018-06-25T06:17:37.887Z,10.20
2018-06-25T06:20:05.731Z,12.00
2018-06-25T06:22:33.563Z,12.17
2018-06-25T06:25:01.288Z,12.10
2018-06-25T06:27:29.047Z,12.33
2018-06-25T06:29:56.813Z,10.83
2018-06-25T06:32:24.556Z,11.10
2018-06-25T06:34:52.314Z,13.73
2018-06-25T06:37:20.076Z,11.33
2018-06-25T06:39:47.821Z,12.60
2018-06-25T06:42:15.568Z,13.23
2018-06-25T06:44:43.352Z,13.13
2018-06-25T06:47:10.984Z,11.80
2018-06-25T06:49:38.703Z,12.17
2018-06-25T06:52:06.566Z,13.20
2018-06-25T06:54:34.312Z,13.60
2018-06-25T06:57:02.080Z,12.20
2018-06-25T06:59:29.685Z,12.87
2018-06-25T07:01:57.469Z,13.03
2018-06-25T07:04:25.195Z,10.97
2018-06-25T07:06:52.952Z,10.87
2018-06-25T07:09:20.678Z,12.20
2018-06-25T07:11:48.443Z,12.23
2018-06-25T07:14:16.107Z,11.37
2018-06-25T07:16:43.892Z,11.00
2018-06-25T07:19:11.495Z,10.70
2018-06-25T07:21:39.304Z,11.53
2018-06-25T07:24:07.062Z,10.80
2018-06-25T07:26:34.856Z,7.87
2018-06-25T07:29:02.620Z,6.83
2018-06-25T07:31:30.226Z,7.20
2018-06-25T07:33:57.939Z,6.53
2018-06-25T07:36:25.756Z,7.60
2018-06-25T07:38:53.476Z,7.73
2018-06-25T07:41:21.572Z,7.70
2018-06-25T07:43:49.324Z,8.17
2018-06-25T07:46:17.067Z,7.90
2018-06-25T07:48:44.909Z,8.13
2018-06-25T07:51:12.680Z,8.77
2018-06-25T07:53:40.457Z,7.47
2018-06-25T07:56:08.228Z,8.80
2018-06-25T07:58:35.997Z,9.30
2018-06-25T08:01:03.659Z,9.20
2018-06-25T08:03:31.456Z,9.20
2018-06-25T08:05:59.201Z,9.73
2018-06-25T08:08:27.004Z,9.13
2018-06-25T08:10:54.772Z,9.10
2018-06-25T08:13:22.536Z,9.00
2018-06-25T08:15:50.257Z,9.67
2018-06-25T08:18:17.987Z,8.40
2018-06-25T08:20:45.771Z,8.30
2018-06-25T08:23:13.347Z,9.13
2018-06-25T08:25:41.099Z,8.03
2018-06-25T08:28:08.678Z,9.20
2018-06-25T08:30:36.424Z,11.03
2018-06-25T08:33:04.208Z,10.57
2018-06-25T08:35:31.959Z,11.00
2018-06-25T08:37:59.665Z,10.40
2018-06-25T08:40:27.457Z,9.10
2018-06-25T08:42:55.225Z,10.30
2018-06-25T08:45:23.012Z,11.70
2018-06-25T08:47:50.719Z,11.17
2018-06-25T08:50:18.463Z,10.57
2018-06-25T08:52:46.179Z,11.10
2018-06-25T08:55:13.975Z,10.43
2018-06-25T08:57:41.700Z,11.17
2018-06-25T09:00:09.446Z,9.67
2018-06-25T09:02:37.161Z,11.07
2018-06-25T09:05:04.988Z,11.43
2018-06-25T09:07:32.667Z,10.40
2018-06-25T09:10:00.396Z,11.70
2018-06-25T09:12:28.142Z,13.40
2018-06-25T09:14:55.887Z,14.00
2018-06-25T09:17:23.622Z,13.97
2018-06-25T09:19:51.354Z,14.77
2018-06-25T09:22:19.120Z,14.27
2018-06-25T09:24:46.812Z,15.00
2018-06-25T09:27:14.572Z,13.67
2018-06-25T09:29:42.291Z,14.97
2018-06-25T09:32:10.029Z,14.57
2018-06-25T09:34:43.540Z,14.80
2018-06-25T09:37:11.295Z,14.40
2018-06-25T09:39:38.883Z,14.83
2018-06-25T09:42:06.647Z,15.90
2018-06-25T09:44:34.383Z,14.73
2018-06-25T09:47:02.021Z,15.60
2018-06-25T09:49:29.729Z,11.70
2018-06-25T09:51:57.441Z,13.10
2018-06-25T09:54:25.160Z,12.30
2018-06-25T09:56:52.900Z,14.63
2018-06-25T09:59:20.619Z,14.37
2018-06-25T10:01:48.344Z,13.43
2018-06-25T10:04:16.044Z,13.00
2018-06-25T10:06:43.780Z,14.03
2018-06-25T10:09:12.019Z,15.30
2018-06-25T10:11:40.120Z,15.90
2018-06-25T10:14:07.838Z,13.63
2018-06-25T10:16:35.596Z,14.10
2018-06-25T10:19:03.904Z,11.67
2018-06-25T10:21:31.534Z,13.80
2018-06-25T10:23:59.251Z,15.20
2018-06-25T10:26:27.120Z,13.70
2018-06-25T10:28:54.864Z,13.90
2018-06-25T10:31:22.611Z,14.37
2018-06-25T10:33:50.317Z,16.00
2018-06-25T10:36:18.020Z,16.17
2018-06-25T10:38:45.780Z,16.37
2018-06-25T10:41:13.549Z,15.93
2018-06-25T10:43:41.327Z,13.10
2018-06-25T10:46:09.060Z,14.90
2018-06-25T10:48:36.751Z,14.60
2018-06-25T10:51:04.467Z,13.50
2018-06-25T10:53:32.151Z,12.50
2018-06-25T10:55:59.884Z,14.23
2018-06-25T10:58:27.648Z,12.33
2018-06-25T11:00:55.400Z,14.20
2018-06-25T11:03:23.115Z,12.73
2018-06-25T11:05:50.898Z,13.43
2018-06-25T11:08:18.627Z,12.30
2018-06-25T11:10:46.478Z,13.80
2018-06-25T11:13:14.224Z,12.60
2018-06-25T11:15:41.947Z,12.23
2018-06-25T11:18:09.668Z,13.60
2018-06-25T11:20:37.396Z,15.13
2018-06-25T11:23:05.096Z,14.73
2018-06-25T11:25:32.879Z,17.10
2018-06-25T11:28:00.675Z,16.70
2018-06-25T11:30:28.315Z,18.97
2018-06-25T11:32:56.069Z,18.87
2018-06-25T11:35:23.839Z,19.40
2018-06-25T11:37:51.553Z,19.03
2018-06-25T11:40:19.259Z,16.27
2018-06-25T11:42:46.990Z,17.30
2018-06-25T11:45:14.783Z,18.37
2018-06-25T11:47:42.516Z,18.87
2018-06-25T11:50:10.252Z,20.70
2018-06-25T11:52:38.026Z,20.23
2018-06-25T11:55:05.812Z,22.03
2018-06-25T11:57:33.571Z,21.60
2018-06-25T12:00:01.206Z,22.53
2018-06-25T12:02:28.968Z,21.53
2018-06-25T12:04:56.707Z,20.67
2018-06-25T12:07:24.436Z,21.90
2018-06-25T12:09:52.163Z,20.83
2018-06-25T12:12:19.925Z,19.90
2018-06-25T12:14:47.636Z,19.40
2018-06-25T12:17:15.416Z,20.30
2018-06-25T12:19:43.152Z,21.00
2018-06-25T12:22:10.978Z,21.47
2018-06-25T12:24:38.732Z,19.70
2018-06-25T12:27:06.560Z,19.13
2018-06-25T12:29:34.344Z,19.60
2018-06-25T12:32:02.119Z,19.70
2018-06-25T12:34:29.873Z,16.70
2018-06-25T12:36:57.672Z,15.90
2018-06-25T12:39:25.544Z,16.00
2018-06-25T12:41:53.297Z,14.07
2018-06-25T12:44:21.083Z,14.10
2018-06-25T12:46:48.842Z,12.07
2018-06-25T12:49:16.613Z,10.93
2018-06-25T12:51:44.356Z,11.97
2018-06-25T12:54:12.066Z,10.60
2018-06-25T12:56:39.847Z,10.77
2018-06-25T12:59:07.584Z,10.23
2018-06-25T13:01:35.424Z,12.90
2018-06-25T13:04:03.125Z,8.67
2018-06-25T13:06:30.882Z,9.70
2018-06-25T13:08:58.471Z,6.83
2018-06-25T13:11:26.240Z,6.57
2018-06-25T13:13:54.073Z,5.83
2018-06-25T13:16:21.828Z,5.93
2018-06-25T13:18:49.419Z,5.83
2018-06-25T13:21:17.216Z,7.03
2018-06-25T13:23:45.040Z,6.47
2018-06-25T13:26:12.813Z,6.67
2018-06-25T13:28:40.608Z,5.77
2018-06-25T13:31:08.489Z,5.50
2018-06-25T13:33:36.135Z,6.03
2018-06-25T13:36:03.995Z,5.57
2018-06-25T13:38:31.740Z,5.60
2018-06-25T13:40:59.492Z,5.20
2018-06-25T13:43:27.265Z,4.90
2018-06-25T13:45:55.029Z,4.23
2018-06-25T13:48:22.874Z,4.00
2018-06-25T13:50:50.589Z,4.17
2018-06-25T13:53:18.452Z,4.40
2018-06-25T13:55:46.156Z,4.13
2018-06-25T13:58:13.952Z,4.33
2018-06-25T14:00:41.783Z,4.57
2018-06-25T14:03:09.521Z,3.80
2018-06-25T14:05:37.256Z,4.33
2018-06-25T14:08:05.036Z,3.83
2018-06-25T14:10:32.830Z,5.47
2018-06-25T14:13:00.613Z,4.90
2018-06-25T14:15:28.412Z,4.33
2018-06-25T14:17:56.299Z,3.77
2018-06-25T14:20:24.081Z,3.80
2018-06-25T14:22:51.880Z,2.90
2018-06-25T14:25:19.620Z,2.87
2018-06-25T14:27:52.904Z,2.40
2018-06-25T14:30:26.356Z,2.00
2018-06-25T14:32:59.951Z,2.30
2018-06-25T14:35:27.676Z,1.97
2018-06-25T14:37:55.435Z,2.40
2018-06-25T14:40:23.193Z,2.27
2018-06-25T14:42:51.116Z,2.47
2018-06-25T14:45:19.053Z,2.67
2018-06-25T14:47:46.779Z,2.93
2018-06-25T14:50:14.533Z,3.23
2018-06-25T14:52:42.392Z,2.77
2018-06-25T14:55:10.143Z,2.77
2018-06-25T14:57:37.931Z,2.20
2018-06-25T15:00:05.780Z,3.20
2018-06-25T15:02:33.671Z,2.57
2018-06-25T15:05:01.551Z,3.53
2018-06-25T15:07:29.347Z,2.80
2018-06-25T15:09:57.088Z,2.87
2018-06-25T15:12:24.878Z,3.10
2018-06-25T15:14:52.675Z,2.53
2018-06-25T15:17:20.448Z,3.00
2018-06-25T15:19:48.198Z,2.77
2018-06-25T15:22:16.129Z,3.33
2018-06-25T15:24:43.832Z,2.67
2018-06-25T15:27:11.596Z,3.57
2018-06-25T15:29:39.396Z,2.73
2018-06-25T15:32:07.172Z,2.67
2018-06-25T15:34:34.924Z,2.90
2018-06-25T15:37:02.735Z,2.83
2018-06-25T15:39:30.492Z,2.80
2018-06-25T15:41:58.210Z,2.60
2018-06-25T15:44:25.943Z,3.13
2018-06-25T15:46:53.747Z,2.73
2018-06-25T15:49:21.490Z,2.80
2018-06-25T15:51:49.296Z,3.03
2018-06-25T15:54:17.052Z,3.17
2018-06-25T15:56:45.088Z,4.17
2018-06-25T15:59:12.835Z,3.50
2018-06-25T16:01:40.624Z,3.07
2018-06-25T16:04:08.374Z,3.17
2018-06-25T16:06:36.173Z,3.80
2018-06-25T16:09:05.316Z,3.50
2018-06-25T16:11:32.984Z,3.53
2018-06-25T16:14:00.649Z,3.33
2018-06-25T16:16:28.304Z,4.00
2018-06-25T16:18:55.927Z,3.43
2018-06-25T16:21:23.689Z,3.30
2018-06-25T16:23:51.444Z,3.50
2018-06-25T16:26:19.218Z,3.87
2018-06-25T16:28:47.013Z,4.30
2018-06-25T16:31:14.848Z,4.30
2018-06-25T16:33:42.620Z,4.60
2018-06-25T16:36:10.468Z,5.60
2018-06-25T16:38:38.256Z,4.80
2018-06-25T16:41:06.168Z,4.10
2018-06-25T16:43:33.951Z,5.00
2018-06-25T16:46:01.792Z,3.73
2018-06-25T16:48:29.697Z,4.70
2018-06-25T16:50:57.443Z,4.30
2018-06-25T16:53:25.249Z,3.70
2018-06-25T16:55:52.980Z,4.50
2018-06-25T16:58:20.726Z,4.90
2018-06-25T17:00:48.368Z,4.77
2018-06-25T17:03:16.155Z,3.87
2018-06-25T17:05:43.929Z,4.23
2018-06-25T17:08:11.711Z,4.50
2018-06-25T17:10:39.546Z,4.10
2018-06-25T17:13:07.312Z,4.50
2018-06-25T17:15:35.101Z,4.30
2018-06-25T17:18:02.956Z,3.67
2018-06-25T17:20:30.702Z,3.90
2018-06-25T17:22:58.324Z,3.23
2018-06-25T17:25:26.084Z,3.40
2018-06-25T17:27:53.896Z,4.23
2018-06-25T17:30:21.677Z,4.20
2018-06-25T17:32:49.450Z,3.30
2018-06-25T17:35:17.393Z,3.70
2018-06-25T17:37:45.176Z,5.10
2018-06-25T17:40:12.998Z,3.73
2018-06-25T17:42:40.652Z,3.30
2018-06-25T17:45:08.497Z,4.40
2018-06-25T17:47:36.470Z,4.33
2018-06-25T17:50:04.630Z,5.47
2018-06-25T17:52:32.435Z,4.17
2018-06-25T17:55:00.170Z,3.53
2018-06-25T17:57:28.036Z,3.73
2018-06-25T17:59:55.788Z,4.10
2018-06-25T18:02:23.544Z,4.10
2018-06-25T18:04:51.309Z,3.83
2018-06-25T18:07:19.209Z,3.60
2018-06-25T18:09:47.122Z,3.40
2018-06-25T18:12:15.037Z,3.43
2018-06-25T18:14:42.894Z,3.80
2018-06-25T18:17:10.740Z,4.80
2018-06-25T18:19:38.653Z,4.80
2018-06-25T18:22:06.595Z,4.50
2018-06-25T18:24:34.404Z,3.77
2018-06-25T18:27:02.224Z,3.83
2018-06-25T18:29:30.120Z,3.57
2018-06-25T18:31:57.947Z,3.90
2018-06-25T18:34:25.820Z,3.30
2018-06-25T18:36:53.643Z,2.60
2018-06-25T18:39:21.457Z,3.27
2018-06-25T18:41:49.315Z,3.47
2018-06-25T18:44:17.172Z,2.67
2018-06-25T18:46:45.029Z,3.30
2018-06-25T18:49:12.903Z,3.60
2018-06-25T18:51:40.751Z,3.10
2018-06-25T18:54:08.811Z,3.57
2018-06-25T18:56:36.608Z,3.50
2018-06-25T18:59:04.500Z,4.03
2018-06-25T19:01:32.322Z,3.30
2018-06-25T19:04:06.869Z,2.87
2018-06-25T19:06:34.950Z,3.00
2018-06-25T19:09:03.063Z,3.50
2018-06-25T19:11:30.964Z,3.13
2018-06-25T19:13:58.619Z,3.10
2018-06-25T19:16:26.303Z,3.00
2018-06-25T19:18:54.144Z,2.97
2018-06-25T19:21:21.955Z,2.90
2018-06-25T19:23:49.689Z,2.60
2018-06-25T19:26:17.535Z,2.80
2018-06-25T19:28:45.337Z,2.43
2018-06-25T19:31:12.960Z,2.80
2018-06-25T19:33:40.795Z,3.60
2018-06-25T19:36:08.540Z,2.90
2018-06-25T19:38:36.264Z,3.00
2018-06-25T19:41:03.896Z,3.57
2018-06-25T19:43:31.691Z,2.77
2018-06-25T19:45:59.448Z,2.43
2018-06-25T19:48:27.231Z,2.43
2018-06-25T19:50:54.799Z,3.93
2018-06-25T19:53:22.558Z,3.30
2018-06-25T19:55:50.956Z,3.07
2018-06-25T19:58:18.704Z,2.37
2018-06-25T20:00:46.465Z,3.00
2018-06-25T20:03:14.213Z,2.60
2018-06-25T20:05:42.001Z,2.70
2018-06-25T20:08:09.760Z,2.83
2018-06-25T20:10:37.391Z,3.37
2018-06-25T20:13:05.127Z,2.60
2018-06-25T20:15:32.910Z,2.87
2018-06-25T20:18:00.632Z,2.50
2018-06-25T20:20:28.408Z,2.90
2018-06-25T20:22:56.236Z,2.10
2018-06-25T20:25:23.923Z,2.40
2018-06-25T20:27:51.692Z,2.53
2018-06-25T20:30:19.500Z,3.77
2018-06-25T20:32:47.286Z,4.10
2018-06-25T20:35:15.055Z,3.10
2018-06-25T20:37:42.860Z,2.83
2018-06-25T20:40:10.683Z,3.27
2018-06-25T20:42:38.431Z,3.27
2018-06-25T20:45:06.291Z,3.03
2018-06-25T20:47:34.041Z,2.63
2018-06-25T20:50:01.842Z,2.43
2018-06-25T20:52:29.574Z,3.37
2018-06-25T20:54:57.397Z,3.60
2018-06-25T20:57:25.262Z,3.90
2018-06-25T20:59:53.064Z,3.27
2018-06-25T21:02:20.906Z,3.07
2018-06-25T21:04:48.716Z,3.30
2018-06-25T21:07:16.453Z,3.40
2018-06-25T21:09:44.402Z,3.60
2018-06-25T21:12:12.248Z,3.00
2018-06-25T21:14:39.903Z,3.67
2018-06-25T21:17:07.708Z,3.10
2018-06-25T21:19:35.453Z,2.70
2018-06-25T21:22:03.484Z,2.97
2018-06-25T21:24:31.191Z,3.13
2018-06-25T21:26:58.980Z,3.37
2018-06-25T21:29:26.753Z,3.23
2018-06-25T21:31:54.516Z,3.17
2018-06-25T21:34:22.320Z,3.20
2018-06-25T21:36:50.103Z,3.80
2018-06-25T21:39:18.112Z,3.47
2018-06-25T21:41:45.933Z,3.23
2018-06-25T21:44:13.731Z,3.57
2018-06-25T21:46:41.492Z,3.40
2018-06-25T21:49:09.243Z,2.87
2018-06-25T21:51:37.007Z,3.03
2018-06-25T21:54:04.776Z,3.13
2018-06-25T21:56:32.540Z,3.17
2018-06-25T21:59:00.142Z,2.77
2018-06-25T22:01:27.973Z,2.73
2018-06-25T22:03:55.721Z,2.50
2018-06-25T22:06:23.345Z,3.00
2018-06-25T22:08:51.081Z,2.97
2018-06-25T22:11:18.844Z,3.10
2018-06-25T22:13:46.608Z,2.90
2018-06-25T22:16:14.368Z,3.10
2018-06-25T22:18:42.137Z,2.50
2018-06-25T22:21:09.902Z,3.20
2018-06-25T22:23:37.663Z,3.80
2018-06-25T22:26:05.748Z,2.73
2018-06-25T22:28:33.568Z,3.07
2018-06-25T22:31:01.180Z,2.73
2018-06-25T22:33:29.684Z,2.90
2018-06-25T22:35:57.739Z,2.63
2018-06-25T22:38:26.196Z,3.00
2018-06-25T22:40:54.014Z,3.40
2018-06-25T22:43:21.789Z,3.30
2018-06-25T22:45:49.673Z,3.30
2018-06-25T22:48:17.912Z,3.73
2018-06-25T22:50:45.831Z,3.33
2018-06-25T22:53:13.643Z,4.40
2018-06-25T22:55:41.425Z,3.10
2018-06-25T22:58:09.255Z,3.33
2018-06-25T23:00:37.021Z,5.10
2018-06-25T23:03:04.892Z,3.50
2018-06-25T23:05:32.681Z,3.50
2018-06-25T23:08:00.490Z,4.37
2018-06-25T23:10:28.223Z,4.13
2018-06-25T23:12:56.058Z,5.40
2018-06-25T23:15:23.891Z,4.03
2018-06-25T23:17:51.673Z,5.43
2018-06-25T23:20:19.417Z,3.40
2018-06-25T23:22:52.820Z,4.00
2018-06-25T23:25:20.574Z,3.70
2018-06-25T23:27:48.447Z,4.13
2018-06-25T23:30:16.180Z,3.60
2018-06-25T23:32:44.008Z,4.30
2018-06-25T23:35:11.744Z,4.90
2018-06-25T23:37:39.524Z,5.30
2018-06-25T23:40:07.314Z,5.20
2018-06-25T23:42:35.032Z,5.43
2018-06-25T23:45:02.881Z,4.07
2018-06-25T23:47:30.664Z,4.87
2018-06-25T23:49:58.540Z,4.67
2018-06-25T23:52:26.281Z,4.50
2018-06-25T23:54:54.018Z,5.70
2018-06-25T23:57:21.788Z,4.60
2018-06-25T23:59:49.548Z,5.17
